Alexandra — WDD5677 — position and weather

sailwx.info

Track history (hours):
 
Tides and Currents Weather Stations Pressure Air Temp Water Temp Dewpoint Dewpoint Depression Visibility Wind Speed Wind Dir Waves Ship Positions

Alexandra

Owner: Weeks Marine, Inc., Cranford, NJ. More information available from US FCC via Universal Licensing System and Coast Guard Vessel Documentation Center.

Last reported at 2016-May-29 14:33 UTC. Time now 2016-May-29 15:27 UTC.
Position N 29°45' W 095°04'.

Length 40 m; draft 5 m.

Type: Tug. MMSI: 367161950.

Date/timePositionNaut miles runAvg speedWind from/ knotsBaromVisibWave heightAir tempDewpointWater temp
2016-May-29 14:33N 29°45' W 095°04'0 0.0
2016-May-29 13:32N 29°45' W 095°04'0 0.0
2016-May-29 12:33N 29°45' W 095°04'0 0.0
2016-May-29 11:33N 29°45' W 095°04'0 0.0
2016-May-29 10:33N 29°45' W 095°04'0 0.0
2016-May-29 09:33N 29°45' W 095°04'0 0.0
2016-May-29 08:29N 29°45' W 095°04'0 0.0
2016-May-29 07:31N 29°45' W 095°04'0 0.0
2016-May-29 06:31N 29°45' W 095°04'0 0.0
2016-May-29 05:33N 29°45' W 095°04'0 0.0
2016-May-29 04:32N 29°45' W 095°04'0 0.0
2016-May-29 03:11N 29°45' W 095°04'0 0.0
2016-May-29 02:21N 29°45' W 095°04'0 0.0
2016-May-29 01:32N 29°45' W 095°04'0 0.0
2016-May-29 00:33N 29°45' W 095°04'0 0.0
2016-May-28 23:33N 29°45' W 095°04'1 0.7
2016-May-28 22:13N 29°44' W 095°03'4 5.2
2016-May-28 21:30N 29°42' W 094°60'1 0.5
2016-May-28 20:33N 29°41' W 094°59'0 0.0
2016-May-28 19:33N 29°41' W 094°59'5 5.2
2016-May-28 18:33N 29°45' W 095°04'0 0.0
2016-May-28 17:21N 29°45' W 095°04'0 0.4
2016-May-28 16:20N 29°44' W 095°04'4 5.2
2016-May-28 15:33N 29°42' W 094°60'1 0.6
2016-May-28 14:29N 29°41' W 094°59'0 0.0
2016-May-28 13:31N 29°41' W 094°59'0 0.3
2016-May-28 12:32N 29°41' W 094°59'5 4.8
2016-May-28 11:26N 29°45' W 095°04'1 0.2
2016-May-28 09:08N 29°44' W 095°03'3 5.3
2016-May-28 08:32N 29°42' W 095°01'1 1.4
2016-May-28 07:33N 29°41' W 094°59'5 2.2
2016-May-28 05:16N 29°45' W 095°04'0 0.0
2016-May-28 04:28N 29°45' W 095°04'0 0.0
2016-May-28 02:33N 29°45' W 095°04'0 0.0
2016-May-28 01:24N 29°45' W 095°04'0 0.0
2016-May-28 00:25N 29°45' W 095°04'1 0.9
2016-May-27 23:26N 29°44' W 095°03'4 4.8
2016-May-27 22:33N 29°41' W 094°59'0 0.0
2016-May-27 21:31N 29°41' W 094°59'1 0.9
2016-May-27 20:33N 29°41' W 095°00'0 0.0
2016-May-27 19:33N 29°41' W 095°00'0 0.0
2016-May-27 18:33N 29°41' W 095°00'0 0.0
2016-May-27 17:32N 29°41' W 095°00'0 0.0
2016-May-27 16:33N 29°41' W 095°00'0 0.0
2016-May-27 15:33N 29°41' W 095°00'0 0.0
2016-May-27 12:33N 29°41' W 095°00'0 0.0
2016-May-27 11:32N 29°41' W 095°00'0 0.0
2016-May-27 10:32N 29°41' W 095°00'0 0.0
2016-May-27 09:32N 29°41' W 095°00'0 0.2
2016-May-27 08:33N 29°41' W 095°00'3 3.1
2016-May-27 07:33N 29°44' W 095°02'2 1.6
2016-May-27 06:32N 29°45' W 095°04'3 2.6
2016-May-27 05:29N 29°43' W 095°01'2 2.6
2016-May-27 04:33N 29°41' W 094°59'3 3.5
2016-May-27 03:33N 29°44' W 095°02'2 1.6
2016-May-27 02:27N 29°45' W 095°04'1 1.4
2016-May-27 01:23N 29°44' W 095°02'4 3.2
2016-May-27 00:13N 29°41' W 094°59'0 0.0
2016-May-26 14:33N 29°41' W 094°59'0 0.0
2016-May-25 09:33N 29°41' W 094°59'5 5.1
2016-May-25 08:33N 29°45' W 095°04'1 0.5
2016-May-25 06:26N 29°44' W 095°03'4 4.6
2016-May-25 05:33N 29°41' W 094°59'0 0.0
2016-May-25 04:31N 29°41' W 094°59'0 0.0
2016-May-25 03:33N 29°41' W 094°59'0 0.0
2016-May-25 02:32N 29°41' W 094°59'1 0.3
2016-May-24 23:33N 29°41' W 095°00'0 0.0
2016-May-24 22:33N 29°41' W 095°00'0 0.0
2016-May-24 21:32N 29°41' W 095°00'0 0.0
2016-May-24 20:33N 29°41' W 095°00'0 0.0
2016-May-24 19:33N 29°41' W 095°00'0 0.0
2016-May-24 18:33N 29°41' W 095°00'0 0.0
2016-May-24 16:33N 29°41' W 095°00'0 0.0
2016-May-24 15:33N 29°41' W 095°00'0 0.0
2016-May-24 14:33N 29°41' W 095°00'1 0.8
2016-May-24 13:33N 29°41' W 094°59'0 0.0
2016-May-24 12:33N 29°41' W 094°59'0 0.0
2016-May-24 05:33N 29°41' W 094°59'5 4.6
2016-May-24 04:33N 29°44' W 095°03'1 0.5
2016-May-24 03:28N 29°45' W 095°04'4 1.2
2016-May-24 00:34N 29°42' W 095°01'2 1.5
2016-May-23 23:33N 29°41' W 094°59'0 0.2
2016-May-23 22:33N 29°41' W 094°59'5 1.6
2016-May-23 19:25N 29°45' W 095°04'0 0.1
2016-May-23 16:31N 29°45' W 095°04'0 0.0
2016-May-23 10:19N 29°45' W 095°04'0 0.0
2016-May-23 09:09N 29°44' W 095°04'3 5.0
2016-May-23 08:33N 29°42' W 095°01'2 2.0
2016-May-23 07:33N 29°41' W 094°59'5 4.1
2016-May-23 06:19N 29°45' W 095°04'3 1.9
2016-May-23 04:31N 29°42' W 095°01'2 1.7
2016-May-23 03:33N 29°41' W 094°59'5 0.3
2016-May-22 12:30N 29°45' W 095°04'0 0.0
2016-May-22 11:11N 29°45' W 095°04'4 6.6
2016-May-22 10:31N 29°42' W 094°60'1 0.7
2016-May-22 09:33N 29°41' W 094°59'0 0.4
2016-May-22 08:33N 29°42' W 094°60'0 0.1
2016-May-22 01:33N 29°41' W 094°59'0 0.0
2016-May-22 00:32N 29°41' W 094°59'0 0.0
2016-May-21 23:32N 29°41' W 094°59'0 0.0
2016-May-21 22:33N 29°41' W 094°59'0 0.0
2016-May-21 21:33N 29°41' W 094°59'0 0.0
2016-May-21 20:33N 29°41' W 094°59'0 0.0
2016-May-21 19:32N 29°41' W 094°59'0 0.0
2016-May-21 18:33N 29°41' W 094°59'0 0.0
2016-May-21 17:32N 29°41' W 094°59'0 0.0
2016-May-21 16:33N 29°41' W 094°59'0 0.1
2016-May-21 15:33N 29°41' W 094°59'5 5.0
2016-May-21 14:33N 29°45' W 095°04'0 0.0
2016-May-21 13:18N 29°45' W 095°04'1 0.6
2016-May-21 11:16N 29°44' W 095°03'4 5.4
2016-May-21 10:33N 29°41' W 094°59'0 0.0
2016-May-21 09:32N 29°41' W 094°59'5 5.1
2016-May-21 08:31N 29°45' W 095°04'0 0.0
2016-May-21 07:20N 29°45' W 095°04'1 1.2
2016-May-21 06:29N 29°44' W 095°03'4 4.4
2016-May-21 05:33N 29°41' W 094°59'0 0.3
2016-May-21 04:32N 29°42' W 094°60'5 4.1
2016-May-21 03:22N 29°45' W 095°04'0 0.0
2016-May-21 02:33N 29°45' W 095°04'0 0.2
2016-May-21 01:22N 29°44' W 095°04'5 6.1
2016-May-21 00:33N 29°41' W 094°59'0 0.0
2016-May-20 23:33N 29°41' W 094°59'5 3.8
2016-May-20 22:13N 29°45' W 095°04'1 0.4
2016-May-20 19:31N 29°44' W 095°03'4 4.0
2016-May-20 18:33N 29°41' W 094°59'2 2.0
2016-May-20 17:33N 29°42' W 095°01'2 0.7
2016-May-20 14:32N 29°44' W 095°03'4 4.3
2016-May-20 13:33N 29°41' W 094°59'0 0.4
2016-May-20 12:32N 29°41' W 094°59'1 0.7
2016-May-20 11:33N 29°41' W 095°00'0 0.0
2016-May-20 10:30N 29°41' W 095°00'0 0.0
2016-May-20 09:33N 29°41' W 095°00'0 0.0
2016-May-20 08:33N 29°41' W 095°00'0 0.0
2016-May-20 07:33N 29°41' W 095°00'0 0.0
2016-May-20 06:32N 29°41' W 095°00'0 0.0
2016-May-20 05:33N 29°41' W 095°00'0 0.0
2016-May-20 04:33N 29°41' W 095°00'0 0.0
2016-May-20 03:33N 29°41' W 095°00'0 0.0
2016-May-20 02:33N 29°41' W 095°00'0 0.0
2016-May-20 00:33N 29°41' W 095°00'0 0.0
2016-May-19 22:33N 29°41' W 095°00'0 0.0
2016-May-19 21:33N 29°41' W 095°00'0 0.0
2016-May-19 20:33N 29°41' W 095°00'0 0.0
2016-May-19 19:33N 29°41' W 095°00'0 0.0
2016-May-19 18:32N 29°41' W 095°00'0 0.0
2016-May-19 17:31N 29°41' W 095°00'0 0.0
2016-May-19 16:33N 29°41' W 095°00'0 0.0
2016-May-19 15:33N 29°41' W 095°00'  
Track history (hours):
 
Tides and Currents Weather Stations Pressure Air Temp Water Temp Dewpoint Dewpoint Depression Visibility Wind Speed Wind Dir Waves Ship Positions

Alexandra

Owner: Weeks Marine, Inc., Cranford, NJ. More information available from US FCC via Universal Licensing System and Coast Guard Vessel Documentation Center.

Last reported at 2016-May-29 14:33 UTC. Time now 2016-May-29 15:27 UTC.
Position N 29°45' W 095°04'.

Length 40 m; draft 5 m.

Type: Tug. MMSI: 367161950.

Date/timePositionNaut miles runAvg speedWind from/ knotsBaromVisibWave heightAir tempDewpointWater temp
2016-May-29 14:33N 29°45' W 095°04'0 0.0
2016-May-29 13:32N 29°45' W 095°04'0 0.0
2016-May-29 12:33N 29°45' W 095°04'0 0.0
2016-May-29 11:33N 29°45' W 095°04'0 0.0
2016-May-29 10:33N 29°45' W 095°04'0 0.0
2016-May-29 09:33N 29°45' W 095°04'0 0.0
2016-May-29 08:29N 29°45' W 095°04'0 0.0
2016-May-29 07:31N 29°45' W 095°04'0 0.0
2016-May-29 06:31N 29°45' W 095°04'0 0.0
2016-May-29 05:33N 29°45' W 095°04'0 0.0
2016-May-29 04:32N 29°45' W 095°04'0 0.0
2016-May-29 03:11N 29°45' W 095°04'0 0.0
2016-May-29 02:21N 29°45' W 095°04'0 0.0
2016-May-29 01:32N 29°45' W 095°04'0 0.0
2016-May-29 00:33N 29°45' W 095°04'0 0.0
2016-May-28 23:33N 29°45' W 095°04'1 0.7
2016-May-28 22:13N 29°44' W 095°03'4 5.2
2016-May-28 21:30N 29°42' W 094°60'1 0.5
2016-May-28 20:33N 29°41' W 094°59'0 0.0
2016-May-28 19:33N 29°41' W 094°59'5 5.2
2016-May-28 18:33N 29°45' W 095°04'0 0.0
2016-May-28 17:21N 29°45' W 095°04'0 0.4
2016-May-28 16:20N 29°44' W 095°04'4 5.2
2016-May-28 15:33N 29°42' W 094°60'1 0.6
2016-May-28 14:29N 29°41' W 094°59'0 0.0
2016-May-28 13:31N 29°41' W 094°59'0 0.3
2016-May-28 12:32N 29°41' W 094°59'5 4.8
2016-May-28 11:26N 29°45' W 095°04'1 0.2
2016-May-28 09:08N 29°44' W 095°03'3 5.3
2016-May-28 08:32N 29°42' W 095°01'1 1.4
2016-May-28 07:33N 29°41' W 094°59'5 2.2
2016-May-28 05:16N 29°45' W 095°04'0 0.0
2016-May-28 04:28N 29°45' W 095°04'0 0.0
2016-May-28 02:33N 29°45' W 095°04'0 0.0
2016-May-28 01:24N 29°45' W 095°04'0 0.0
2016-May-28 00:25N 29°45' W 095°04'1 0.9
2016-May-27 23:26N 29°44' W 095°03'4 4.8
2016-May-27 22:33N 29°41' W 094°59'0 0.0
2016-May-27 21:31N 29°41' W 094°59'1 0.9
2016-May-27 20:33N 29°41' W 095°00'0 0.0
2016-May-27 19:33N 29°41' W 095°00'0 0.0
2016-May-27 18:33N 29°41' W 095°00'0 0.0
2016-May-27 17:32N 29°41' W 095°00'0 0.0
2016-May-27 16:33N 29°41' W 095°00'0 0.0
2016-May-27 15:33N 29°41' W 095°00'0 0.0
2016-May-27 12:33N 29°41' W 095°00'0 0.0
2016-May-27 11:32N 29°41' W 095°00'0 0.0
2016-May-27 10:32N 29°41' W 095°00'0 0.0
2016-May-27 09:32N 29°41' W 095°00'0 0.2
2016-May-27 08:33N 29°41' W 095°00'3 3.1
2016-May-27 07:33N 29°44' W 095°02'2 1.6
2016-May-27 06:32N 29°45' W 095°04'3 2.6
2016-May-27 05:29N 29°43' W 095°01'2 2.6
2016-May-27 04:33N 29°41' W 094°59'3 3.5
2016-May-27 03:33N 29°44' W 095°02'2 1.6
2016-May-27 02:27N 29°45' W 095°04'1 1.4
2016-May-27 01:23N 29°44' W 095°02'4 3.2
2016-May-27 00:13N 29°41' W 094°59'0 0.0
2016-May-26 14:33N 29°41' W 094°59'0 0.0
2016-May-25 09:33N 29°41' W 094°59'5 5.1
2016-May-25 08:33N 29°45' W 095°04'1 0.5
2016-May-25 06:26N 29°44' W 095°03'4 4.6
2016-May-25 05:33N 29°41' W 094°59'0 0.0
2016-May-25 04:31N 29°41' W 094°59'0 0.0
2016-May-25 03:33N 29°41' W 094°59'0 0.0
2016-May-25 02:32N 29°41' W 094°59'1 0.3
2016-May-24 23:33N 29°41' W 095°00'0 0.0
2016-May-24 22:33N 29°41' W 095°00'0 0.0
2016-May-24 21:32N 29°41' W 095°00'0 0.0
2016-May-24 20:33N 29°41' W 095°00'0 0.0
2016-May-24 19:33N 29°41' W 095°00'0 0.0
2016-May-24 18:33N 29°41' W 095°00'0 0.0
2016-May-24 16:33N 29°41' W 095°00'0 0.0
2016-May-24 15:33N 29°41' W 095°00'0 0.0
2016-May-24 14:33N 29°41' W 095°00'1 0.8
2016-May-24 13:33N 29°41' W 094°59'0 0.0
2016-May-24 12:33N 29°41' W 094°59'0 0.0
2016-May-24 05:33N 29°41' W 094°59'5 4.6
2016-May-24 04:33N 29°44' W 095°03'1 0.5
2016-May-24 03:28N 29°45' W 095°04'4 1.2
2016-May-24 00:34N 29°42' W 095°01'2 1.5
2016-May-23 23:33N 29°41' W 094°59'0 0.2
2016-May-23 22:33N 29°41' W 094°59'5 1.6
2016-May-23 19:25N 29°45' W 095°04'0 0.1
2016-May-23 16:31N 29°45' W 095°04'0 0.0
2016-May-23 10:19N 29°45' W 095°04'0 0.0
2016-May-23 09:09N 29°44' W 095°04'3 5.0
2016-May-23 08:33N 29°42' W 095°01'2 2.0
2016-May-23 07:33N 29°41' W 094°59'5 4.1
2016-May-23 06:19N 29°45' W 095°04'3 1.9
2016-May-23 04:31N 29°42' W 095°01'2 1.7
2016-May-23 03:33N 29°41' W 094°59'5 0.3
2016-May-22 12:30N 29°45' W 095°04'0 0.0
2016-May-22 11:11N 29°45' W 095°04'4 6.6
2016-May-22 10:31N 29°42' W 094°60'1 0.7
2016-May-22 09:33N 29°41' W 094°59'0 0.4
2016-May-22 08:33N 29°42' W 094°60'0 0.1
2016-May-22 01:33N 29°41' W 094°59'0 0.0
2016-May-22 00:32N 29°41' W 094°59'0 0.0
2016-May-21 23:32N 29°41' W 094°59'0 0.0
2016-May-21 22:33N 29°41' W 094°59'0 0.0
2016-May-21 21:33N 29°41' W 094°59'0 0.0
2016-May-21 20:33N 29°41' W 094°59'0 0.0
2016-May-21 19:32N 29°41' W 094°59'0 0.0
2016-May-21 18:33N 29°41' W 094°59'0 0.0
2016-May-21 17:32N 29°41' W 094°59'0 0.0
2016-May-21 16:33N 29°41' W 094°59'0 0.1
2016-May-21 15:33N 29°41' W 094°59'5 5.0
2016-May-21 14:33N 29°45' W 095°04'0 0.0
2016-May-21 13:18N 29°45' W 095°04'1 0.6
2016-May-21 11:16N 29°44' W 095°03'4 5.4
2016-May-21 10:33N 29°41' W 094°59'0 0.0
2016-May-21 09:32N 29°41' W 094°59'5 5.1
2016-May-21 08:31N 29°45' W 095°04'0 0.0
2016-May-21 07:20N 29°45' W 095°04'1 1.2
2016-May-21 06:29N 29°44' W 095°03'4 4.4
2016-May-21 05:33N 29°41' W 094°59'0 0.3
2016-May-21 04:32N 29°42' W 094°60'5 4.1
2016-May-21 03:22N 29°45' W 095°04'0 0.0
2016-May-21 02:33N 29°45' W 095°04'0 0.2
2016-May-21 01:22N 29°44' W 095°04'5 6.1
2016-May-21 00:33N 29°41' W 094°59'0 0.0
2016-May-20 23:33N 29°41' W 094°59'5 3.8
2016-May-20 22:13N 29°45' W 095°04'1 0.4
2016-May-20 19:31N 29°44' W 095°03'4 4.0
2016-May-20 18:33N 29°41' W 094°59'2 2.0
2016-May-20 17:33N 29°42' W 095°01'2 0.7
2016-May-20 14:32N 29°44' W 095°03'4 4.3
2016-May-20 13:33N 29°41' W 094°59'0 0.4
2016-May-20 12:32N 29°41' W 094°59'1 0.7
2016-May-20 11:33N 29°41' W 095°00'0 0.0
2016-May-20 10:30N 29°41' W 095°00'0 0.0
2016-May-20 09:33N 29°41' W 095°00'0 0.0
2016-May-20 08:33N 29°41' W 095°00'0 0.0
2016-May-20 07:33N 29°41' W 095°00'0 0.0
2016-May-20 06:32N 29°41' W 095°00'0 0.0
2016-May-20 05:33N 29°41' W 095°00'0 0.0
2016-May-20 04:33N 29°41' W 095°00'0 0.0
2016-May-20 03:33N 29°41' W 095°00'0 0.0
2016-May-20 02:33N 29°41' W 095°00'0 0.0
2016-May-20 00:33N 29°41' W 095°00'0 0.0
2016-May-19 22:33N 29°41' W 095°00'0 0.0
2016-May-19 21:33N 29°41' W 095°00'0 0.0
2016-May-19 20:33N 29°41' W 095°00'0 0.0
2016-May-19 19:33N 29°41' W 095°00'0 0.0
2016-May-19 18:32N 29°41' W 095°00'0 0.0
2016-May-19 17:31N 29°41' W 095°00'0 0.0
2016-May-19 16:33N 29°41' W 095°00'0 0.0
2016-May-19 15:33N 29°41' W 095°00'  

Dump ship's entire track history